Time;durP1;ratioP1;P1;durP2;ratioP2;P2;SDS_P1;SDS_P2;PMS_P1;PMS_P2;Temp;Humidity;BMP_temperature;BMP_pressure;BME280_temperature;BME280_humidity;BME280_pressure;Samples;Min_cycle;Max_cycle;Signal;HPM_P1;HPM_P2
2024/02/04 00:00:01;;;;;;;8.90;2.70;;;;;;;12.51;54.05;98693.38;107971;1257;70320;-66
2024/02/04 00:02:38;;;;;;;6.90;2.40;;;;;;;12.28;54.37;98707.42;107989;1255;72564;-66
2024/02/04 00:05:06;;;;;;;6.70;2.80;;;;;;;12.18;54.34;98708.06;107989;1256;60435;-62
2024/02/04 00:07:33;;;;;;;3.60;2.10;;;;;;;12.37;53.93;98709.77;108090;1254;60538;-65
2024/02/04 00:10:01;;;;;;;5.80;1.90;;;;;;;12.52;53.83;98712.84;108140;1254;72555;-65
2024/02/04 00:12:29;;;;;;;4.10;2.30;;;;;;;12.62;53.61;98704.57;108132;1258;69720;-66
2024/02/04 00:14:56;;;;;;;8.30;2.10;;;;;;;12.62;53.63;98694.40;108101;1253;72686;-66
2024/02/04 00:17:29;;;;;;;5.10;2.40;;;;;;;12.61;53.72;98687.06;108142;1254;60813;-67
2024/02/04 00:19:57;;;;;;;6.60;2.60;;;;;;;12.50;53.94;98685.19;108252;1254;59735;-64
2024/02/04 00:22:25;;;;;;;5.10;2.60;;;;;;;12.36;54.24;98687.02;107982;1254;72361;-65
2024/02/04 00:24:52;;;;;;;4.40;2.40;;;;;;;12.42;54.04;98689.23;108195;1254;69320;-65
2024/02/04 00:27:20;;;;;;;4.20;2.40;;;;;;;12.34;54.21;98687.13;108041;1254;71435;-66
2024/02/04 00:29:47;;;;;;;5.80;2.80;;;;;;;12.27;54.34;98692.89;108185;1254;60347;-67
2024/02/04 00:32:15;;;;;;;9.90;2.80;;;;;;;12.30;54.10;98690.73;108146;1254;60223;-65
2024/02/04 00:34:42;;;;;;;6.20;2.80;;;;;;;12.30;54.08;98688.95;108259;1254;73813;-66
2024/02/04 00:37:10;;;;;;;4.30;2.40;;;;;;;12.43;53.73;98686.19;108369;1254;69223;-66
2024/02/04 00:39:38;;;;;;;8.10;2.80;;;;;;;12.50;53.35;98684.67;108253;1257;72510;-64
2024/02/04 00:42:05;;;;;;;6.10;2.30;;;;;;;12.52;53.15;98686.66;108272;1255;60372;-66
2024/02/04 00:44:33;;;;;;;8.40;2.80;;;;;;;12.49;53.08;98689.33;108222;1256;60341;-65
2024/02/04 00:47:00;;;;;;;6.00;2.40;;;;;;;12.22;53.41;98699.70;108271;1254;73855;-67
2024/02/04 00:49:28;;;;;;;4.30;2.20;;;;;;;12.12;53.51;98698.98;108195;1256;70461;-67
2024/02/04 00:51:56;;;;;;;5.60;1.90;;;;;;;12.20;53.10;98696.33;108160;1256;71360;-66
2024/02/04 00:54:23;;;;;;;6.70;2.30;;;;;;;12.15;53.19;98699.85;108170;1253;60433;-65
2024/02/04 00:56:51;;;;;;;5.10;2.00;;;;;;;12.11;52.98;98703.80;108164;1255;60383;-66
2024/02/04 00:59:19;;;;;;;5.30;2.30;;;;;;;12.12;52.77;98708.65;108142;1253;72859;-68
2024/02/04 01:01:46;;;;;;;5.10;2.10;;;;;;;12.13;52.51;98707.53;108121;1257;70146;-66
2024/02/04 01:04:13;;;;;;;6.40;2.30;;;;;;;12.15;52.37;98710.75;108156;1257;71758;-65
2024/02/04 01:06:41;;;;;;;4.30;2.00;;;;;;;12.17;52.34;98708.67;108283;1254;60459;-67
2024/02/04 01:09:27;;;;;;;6.20;2.30;;;;;;;12.18;52.17;98707.02;108222;1257;60350;-65
2024/02/04 01:11:54;;;;;;;5.20;1.80;;;;;;;12.35;51.66;98703.25;108120;1254;72574;-65
2024/02/04 01:14:22;;;;;;;4.10;1.60;;;;;;;12.31;51.63;98699.48;108134;1254;68056;-67
2024/02/04 01:16:49;;;;;;;5.30;1.90;;;;;;;12.53;51.07;98696.59;108093;1254;72735;-64
2024/02/04 01:19:17;;;;;;;8.70;2.00;;;;;;;12.54;50.86;98691.41;108179;1256;60303;-66
2024/02/04 01:24:09;;;;;;;4.60;1.90;;;;;;;10.59;55.62;98697.40;104889;1290;599803;-64
2024/02/04 01:26:37;;;;;;;4.70;2.10;;;;;;;11.58;53.31;98703.89;107217;1264;63012;-65
2024/02/04 01:29:04;;;;;;;6.80;2.20;;;;;;;11.57;53.23;98705.52;107207;1265;60274;-66
2024/02/04 01:31:32;;;;;;;6.10;2.20;;;;;;;11.60;53.07;98703.91;107222;1266;71955;-66
2024/02/04 01:34:00;;;;;;;5.80;1.80;;;;;;;11.46;53.47;98703.52;107302;1266;70324;-66
2024/02/04 01:36:28;;;;;;;6.70;1.80;;;;;;;11.61;53.09;98710.00;107299;1270;71362;-67
2024/02/04 01:38:56;;;;;;;6.20;1.90;;;;;;;11.73;52.82;98709.41;107927;1254;109376;-66
2024/02/04 01:41:26;;;;;;;3.70;1.70;;;;;;;11.64;53.14;98707.84;107922;1257;60553;-67
2024/02/04 01:43:54;;;;;;;4.60;2.00;;;;;;;11.67;52.92;98710.33;107904;1256;70955;-66
2024/02/04 01:46:22;;;;;;;4.50;1.90;;;;;;;11.60;53.14;98712.17;107938;1256;68701;-66
2024/02/04 01:48:50;;;;;;;6.50;2.20;;;;;;;11.60;53.10;98717.77;107928;1261;71827;-66
2024/02/04 01:51:19;;;;;;;8.20;2.00;;;;;;;11.62;52.93;98719.77;107895;1256;60093;-66
2024/02/04 01:53:47;;;;;;;8.80;1.90;;;;;;;11.64;52.97;98728.60;107907;1256;59499;-66
2024/02/04 01:56:15;;;;;;;10.90;2.70;;;;;;;11.65;52.93;98737.35;107737;1257;72100;-67
2024/02/04 01:58:44;;;;;;;6.70;2.10;;;;;;;11.56;53.13;98753.75;107763;1257;70486;-66
2024/02/04 02:01:11;;;;;;;3.70;1.40;;;;;;;11.23;54.29;98747.38;107753;1257;71573;-65
2024/02/04 02:03:43;;;;;;;6.10;1.70;;;;;;;11.19;54.06;98721.39;107883;1256;61167;-66
2024/02/04 02:06:11;;;;;;;3.00;1.40;;;;;;;11.29;53.07;98722.58;107901;1257;59394;-68
2024/02/04 02:08:40;;;;;;;3.90;1.40;;;;;;;11.16;54.14;98734.23;107834;1257;71961;-67
2024/02/04 02:11:21;;;;;;;4.90;2.30;;;;;;;10.88;55.28;98727.15;107754;1257;69909;-66
2024/02/04 02:13:50;;;;;;;;;;;;;;;10.93;55.36;98725.45;107721;1255;71472;-66
2024/02/04 02:16:19;;;;;;;7.00;2.20;;;;;;;10.93;55.44;98723.52;107797;1256;62814;-66
2024/02/04 02:18:53;;;;;;;5.50;1.90;;;;;;;11.07;55.15;98727.56;107785;1255;59536;-66
2024/02/04 02:21:56;;;;;;;5.60;2.20;;;;;;;10.97;55.94;98725.39;107869;1257;73036;-64
2024/02/04 02:24:34;;;;;;;7.70;2.20;;;;;;;11.02;55.96;98726.31;107832;1256;69498;-65
2024/02/04 02:27:01;;;;;;;7.70;1.90;;;;;;;11.05;56.00;98728.92;107887;1256;71078;-65
2024/02/04 02:29:29;;;;;;;4.90;2.30;;;;;;;11.06;56.01;98736.98;107818;1256;61093;-65
2024/02/04 02:31:57;;;;;;;3.20;1.80;;;;;;;11.07;56.09;98733.52;107825;1255;59091;-66
2024/02/04 02:34:25;;;;;;;7.00;2.10;;;;;;;11.07;56.09;98731.45;107788;1256;70988;-64
2024/02/04 02:37:24;;;;;;;5.80;2.20;;;;;;;11.05;56.46;98731.25;107798;1257;70104;-66
2024/02/04 02:40:01;;;;;;;4.80;2.00;;;;;;;10.82;57.08;98733.16;107788;1257;72699;-65
2024/02/04 02:42:30;;;;;;;8.20;2.10;;;;;;;10.68;57.76;98731.19;107650;1258;59733;-66
2024/02/04 02:44:58;;;;;;;8.30;2.60;;;;;;;10.74;57.57;98733.13;107613;1257;59983;-67
2024/02/04 02:47:27;;;;;;;5.80;2.40;;;;;;;10.63;57.57;98733.94;107667;1257;72956;-65
2024/02/04 02:49:55;;;;;;;9.80;3.20;;;;;;;10.77;57.21;98732.08;107730;1262;68895;-66
2024/02/04 02:52:23;;;;;;;7.50;2.20;;;;;;;10.79;56.88;98727.39;107736;1259;72620;-65
2024/02/04 02:54:51;;;;;;;7.90;2.40;;;;;;;10.75;56.87;98729.02;107699;1255;60798;-66
2024/02/04 02:57:19;;;;;;;8.30;2.10;;;;;;;10.89;56.40;98734.67;107835;1256;59551;-66
2024/02/04 02:59:46;;;;;;;7.40;2.50;;;;;;;11.01;55.93;98731.13;107740;1257;73297;-66
2024/02/04 03:02:14;;;;;;;8.00;2.30;;;;;;;11.02;55.69;98728.08;107757;1256;70728;-66
2024/02/04 03:04:41;;;;;;;8.20;2.30;;;;;;;11.03;55.39;98727.65;107684;1257;71469;-65
2024/02/04 03:07:09;;;;;;;7.60;2.30;;;;;;;10.79;55.69;98729.65;107711;1260;59677;-66
2024/02/04 03:09:37;;;;;;;15.00;2.50;;;;;;;10.76;55.53;98724.94;107774;1256;59507;-65
2024/02/04 03:12:05;;;;;;;10.20;2.10;;;;;;;10.73;55.21;98726.13;107768;1257;73100;-66
2024/02/04 03:14:33;;;;;;;8.10;2.50;;;;;;;10.79;55.03;98723.33;107774;1256;70051;-66
2024/02/04 03:17:01;;;;;;;7.40;2.40;;;;;;;10.87;54.77;98720.58;107571;1258;72931;-67
2024/02/04 03:19:28;;;;;;;6.50;2.50;;;;;;;10.85;54.54;98722.61;107726;1257;59641;-66
2024/02/04 03:21:56;;;;;;;8.00;2.30;;;;;;;10.85;54.31;98717.52;107803;1256;60384;-67
2024/02/04 03:24:23;;;;;;;8.90;2.50;;;;;;;10.85;54.18;98718.61;107762;1256;73083;-64
2024/02/04 03:26:51;;;;;;;5.40;1.90;;;;;;;10.80;53.90;98726.94;107830;1260;69327;-65
2024/02/04 03:29:19;;;;;;;11.00;2.50;;;;;;;10.83;53.39;98732.39;107706;1260;70696;-65
2024/02/04 03:31:47;;;;;;;9.60;2.30;;;;;;;10.83;53.13;98737.46;107795;1257;61033;-64
2024/02/04 03:34:14;;;;;;;8.70;2.20;;;;;;;10.83;52.86;98735.88;107624;1256;59354;-65
2024/02/04 03:36:42;;;;;;;9.40;2.20;;;;;;;10.73;52.93;98739.30;107709;1262;73288;-66
2024/02/04 03:39:10;;;;;;;5.40;2.30;;;;;;;10.85;52.47;98742.30;107619;1257;70187;-65
2024/02/04 03:41:37;;;;;;;11.30;2.30;;;;;;;10.79;52.25;98740.35;107720;1259;72660;-66
2024/02/04 03:44:05;;;;;;;10.60;2.60;;;;;;;10.87;51.94;98737.45;107737;1257;59612;-65
2024/02/04 03:46:33;;;;;;;6.80;2.00;;;;;;;10.81;51.89;98734.78;107719;1256;60041;-65
2024/02/04 03:49:01;;;;;;;14.40;2.60;;;;;;;10.83;51.87;98738.20;107588;1256;71758;-66
2024/02/04 03:51:29;;;;;;;15.30;2.90;;;;;;;10.73;51.95;98735.80;107739;1257;70181;-64
2024/02/04 03:53:56;;;;;;;7.40;2.30;;;;;;;10.60;52.11;98737.27;107763;1262;72314;-65
2024/02/04 03:56:24;;;;;;;6.50;1.80;;;;;;;10.57;52.14;98736.38;107738;1259;59516;-65
2024/02/04 03:58:52;;;;;;;5.80;2.20;;;;;;;10.51;52.29;98739.40;107738;1256;59538;-65
2024/02/04 04:01:20;;;;;;;6.90;2.50;;;;;;;10.33;52.59;98741.31;108041;1253;71051;-65
2024/02/04 04:03:47;;;;;;;8.90;2.40;;;;;;;10.49;52.33;98740.05;108115;1253;70168;-65
2024/02/04 04:06:15;;;;;;;12.30;2.20;;;;;;;10.52;52.16;98747.93;108001;1254;70869;-65
2024/02/04 04:08:43;;;;;;;10.80;2.10;;;;;;;10.59;52.10;98755.80;108081;1253;59704;-65
2024/02/04 04:11:11;;;;;;;10.70;2.40;;;;;;;10.54;52.05;98753.08;108021;1253;59545;-65
2024/02/04 04:13:38;;;;;;;9.20;2.20;;;;;;;10.61;51.75;98754.21;108055;1253;73407;-65
2024/02/04 04:16:06;;;;;;;11.00;2.40;;;;;;;10.64;51.55;98758.60;108013;1254;70625;-64
2024/02/04 04:18:34;;;;;;;7.40;1.90;;;;;;;10.53;51.51;98762.75;108078;1254;72958;-65
2024/02/04 04:21:02;;;;;;;8.00;1.90;;;;;;;10.42;51.51;98765.17;108018;1256;59619;-65
2024/02/04 04:23:30;;;;;;;8.10;2.10;;;;;;;10.59;51.13;98766.79;108150;1253;60253;-66
2024/02/04 04:25:57;;;;;;;7.90;2.20;;;;;;;10.62;50.86;98768.20;108059;1253;73072;-64
2024/02/04 04:28:25;;;;;;;10.20;2.50;;;;;;;10.65;50.78;98768.03;108194;1254;70113;-65
2024/02/04 04:30:52;;;;;;;6.60;2.10;;;;;;;10.78;50.45;98766.61;108066;1254;72433;-66
2024/02/04 04:33:20;;;;;;;6.70;2.00;;;;;;;10.80;50.43;98763.33;108081;1258;59976;-65
2024/02/04 04:35:48;;;;;;;8.50;2.20;;;;;;;10.74;50.43;98769.08;107929;1254;59015;-65
2024/02/04 04:38:15;;;;;;;9.50;2.10;;;;;;;10.82;50.29;98765.09;108024;1259;71988;-66
2024/02/04 04:40:43;;;;;;;5.60;1.90;;;;;;;10.70;50.14;98769.86;107965;1254;70252;-66
2024/02/04 04:43:11;;;;;;;8.70;2.00;;;;;;;10.86;49.79;98770.15;107870;1254;72665;-67
2024/02/04 04:45:38;;;;;;;7.50;2.20;;;;;;;10.93;49.50;98771.62;107971;1257;60229;-65
2024/02/04 04:48:08;;;;;;;8.40;1.90;;;;;;;11.05;49.29;98770.58;108003;1254;59530;-67
2024/02/04 04:50:36;;;;;;;14.00;2.50;;;;;;;11.10;49.12;98775.52;107936;1254;73135;-67
2024/02/04 04:53:04;;;;;;;7.40;2.30;;;;;;;11.13;49.11;98770.27;108089;1254;69609;-66
2024/02/04 04:55:31;;;;;;;11.20;2.60;;;;;;;11.21;49.03;98769.43;107953;1254;71772;-66
2024/02/04 04:57:59;;;;;;;8.90;2.10;;;;;;;11.10;49.22;98769.88;108024;1253;60460;-66
2024/02/04 05:00:26;;;;;;;4.80;1.90;;;;;;;11.10;49.17;98768.67;108072;1254;59987;-66
2024/02/04 05:02:54;;;;;;;7.50;2.00;;;;;;;11.08;49.19;98769.67;108024;1254;71692;-66
2024/02/04 05:05:22;;;;;;;8.60;2.50;;;;;;;11.17;49.06;98771.46;108012;1253;70305;-63
2024/02/04 05:07:49;;;;;;;13.00;3.50;;;;;;;11.20;48.84;98775.27;109157;1254;72503;-66
2024/02/04 05:10:17;;;;;;;8.40;2.50;;;;;;;11.07;48.93;98774.82;109164;1254;60899;-66
2024/02/04 05:12:44;;;;;;;7.00;2.20;;;;;;;11.10;48.95;98772.73;109126;1254;60384;-67
2024/02/04 05:15:12;;;;;;;11.80;2.50;;;;;;;11.09;49.01;98773.48;109200;1253;73006;-66
2024/02/04 05:17:39;;;;;;;8.30;2.10;;;;;;;11.05;49.02;98772.31;109208;1254;70024;-67
2024/02/04 05:20:07;;;;;;;7.70;2.50;;;;;;;11.17;48.86;98772.64;109167;1254;72723;-66
2024/02/04 05:22:35;;;;;;;8.90;2.30;;;;;;;11.16;48.74;98777.15;109157;1254;58945;-65
2024/02/04 05:25:04;;;;;;;7.00;2.40;;;;;;;11.20;48.69;98775.98;109198;1254;58797;-66
2024/02/04 05:27:32;;;;;;;7.10;2.20;;;;;;;11.18;48.66;98777.88;109166;1254;72983;-66
2024/02/04 05:30:00;;;;;;;6.90;2.50;;;;;;;11.31;48.48;98782.66;109212;1254;70144;-66
2024/02/04 05:32:27;;;;;;;11.70;2.80;;;;;;;11.30;48.36;98782.57;108951;1254;72672;-66
2024/02/04 05:34:55;;;;;;;7.90;2.40;;;;;;;11.26;48.44;98783.15;109379;1252;59608;-67
2024/02/04 05:37:22;;;;;;;6.00;2.00;;;;;;;11.18;48.34;98784.52;109288;1254;60006;-66
2024/02/04 05:43:35;;;;;;;10.70;2.50;;;;;;;11.25;48.33;98787.26;104736;1290;603781;-66
2024/02/04 05:46:01;;;;;;;13.60;2.70;;;;;;;11.48;47.93;98784.23;107331;1264;59231;-67
2024/02/04 05:48:28;;;;;;;8.90;2.30;;;;;;;11.42;47.95;98784.15;107324;1264;60110;-66
2024/02/04 05:50:56;;;;;;;8.90;2.70;;;;;;;11.48;47.84;98786.54;107291;1265;72443;-67
2024/02/04 05:53:22;;;;;;;10.40;3.10;;;;;;;11.51;47.78;98786.89;107363;1266;70330;-66
2024/02/04 05:55:49;;;;;;;9.20;2.90;;;;;;;11.38;48.03;98784.59;107214;1265;139670;-68
2024/02/04 05:58:16;;;;;;;8.50;2.70;;;;;;;11.35;48.20;98783.34;108142;1256;61058;-66
2024/02/04 06:00:42;;;;;;;9.60;3.20;;;;;;;11.43;48.08;98783.34;108109;1253;60147;-67
2024/02/04 06:03:09;;;;;;;11.70;3.00;;;;;;;11.45;47.93;98784.07;108173;1253;72109;-67
2024/02/04 06:05:37;;;;;;;7.90;2.40;;;;;;;11.37;48.19;98786.56;108160;1257;69854;-66
2024/02/04 06:08:05;;;;;;;6.70;2.30;;;;;;;11.45;48.08;98785.34;108108;1253;71940;-66
2024/02/04 06:10:32;;;;;;;7.50;2.10;;;;;;;11.53;47.94;98790.82;108207;1257;60292;-67
2024/02/04 06:12:59;;;;;;;8.40;2.40;;;;;;;11.63;47.74;98789.89;108139;1253;59084;-68
2024/02/04 06:15:25;;;;;;;15.10;2.90;;;;;;;11.63;47.75;98791.98;108083;1253;73532;-66
2024/02/04 06:17:52;;;;;;;8.70;2.20;;;;;;;11.65;47.76;98794.33;108097;1256;69038;-66
2024/02/04 06:20:19;;;;;;;10.50;2.80;;;;;;;11.61;47.60;98797.69;108124;1253;71935;-67
2024/02/04 06:22:45;;;;;;;9.60;2.60;;;;;;;11.60;47.50;98805.70;108128;1253;61087;-67
2024/02/04 06:25:12;;;;;;;12.40;2.80;;;;;;;11.53;47.68;98806.29;108136;1253;59460;-63
2024/02/04 06:27:40;;;;;;;11.50;3.10;;;;;;;11.57;47.43;98799.73;108124;1253;72930;-67
2024/02/04 06:30:07;;;;;;;8.70;2.60;;;;;;;11.61;47.36;98796.46;108114;1253;70768;-66
2024/02/04 06:32:37;;;;;;;9.70;3.00;;;;;;;11.70;47.31;98788.52;108104;1253;72523;-66
2024/02/04 06:35:04;;;;;;;9.40;3.00;;;;;;;11.67;47.44;98793.44;108098;1253;61073;-66
2024/02/04 06:37:32;;;;;;;12.30;2.80;;;;;;;11.69;47.37;98792.11;108090;1253;61570;-66
2024/02/04 06:39:59;;;;;;;11.60;3.30;;;;;;;11.68;47.29;98792.33;107990;1255;72938;-67
2024/02/04 06:42:25;;;;;;;9.20;2.70;;;;;;;11.54;47.36;98787.59;107949;1255;70264;-66
2024/02/04 06:44:52;;;;;;;9.50;2.90;;;;;;;11.60;47.43;98785.30;107922;1256;72415;-66
2024/02/04 06:47:19;;;;;;;11.80;3.10;;;;;;;11.76;47.13;98786.59;107916;1256;60985;-66
2024/02/04 06:49:46;;;;;;;8.70;2.50;;;;;;;11.75;47.23;98788.94;108009;1256;60156;-67
2024/02/04 06:52:13;;;;;;;8.80;2.70;;;;;;;11.76;47.24;98793.95;107994;1257;73045;-67
2024/02/04 06:54:40;;;;;;;8.40;3.20;;;;;;;11.68;47.38;98796.05;107903;1256;69075;-67
2024/02/04 06:57:07;;;;;;;12.10;2.70;;;;;;;11.66;47.46;98798.48;107911;1256;73895;-67
2024/02/04 06:59:34;;;;;;;7.40;3.00;;;;;;;11.74;47.33;98794.10;107911;1255;61160;-67
2024/02/04 07:02:01;;;;;;;7.20;2.90;;;;;;;11.68;47.56;98792.35;107953;1256;61252;-67
2024/02/04 07:04:28;;;;;;;7.70;3.20;;;;;;;11.67;47.55;98794.35;107904;1256;72893;-67
2024/02/04 07:06:55;;;;;;;12.30;2.70;;;;;;;11.78;47.30;98793.48;107930;1256;70951;-67
2024/02/04 07:09:21;;;;;;;10.00;2.60;;;;;;;11.78;47.22;98799.46;107883;1256;71949;-66
2024/02/04 07:11:48;;;;;;;8.60;2.30;;;;;;;11.61;47.60;98797.88;107862;1256;61099;-66
2024/02/04 07:14:15;;;;;;;12.60;3.00;;;;;;;11.51;47.59;98797.27;107871;1257;60188;-66
2024/02/04 07:16:42;;;;;;;8.80;2.60;;;;;;;11.58;47.52;98798.26;107926;1256;73021;-66
2024/02/04 07:19:09;;;;;;;9.80;2.70;;;;;;;11.53;47.67;98802.05;107902;1256;70086;-67
2024/02/04 07:21:35;;;;;;;10.40;2.80;;;;;;;11.72;47.40;98803.86;107865;1255;72954;-69
2024/02/04 07:24:02;;;;;;;14.20;3.50;;;;;;;11.65;47.16;98807.46;107879;1256;59661;-67
2024/02/04 07:26:29;;;;;;;9.90;3.00;;;;;;;11.69;47.30;98806.02;107882;1256;60272;-67
2024/02/04 07:28:56;;;;;;;11.20;2.60;;;;;;;11.68;47.32;98807.29;107869;1256;73043;-66
2024/02/04 07:31:26;;;;;;;17.00;3.10;;;;;;;11.57;47.30;98804.96;107896;1256;59375;-67
2024/02/04 07:33:53;;;;;;;11.20;3.20;;;;;;;11.56;47.35;98805.77;107909;1256;73337;-67
2024/02/04 07:36:20;;;;;;;16.90;3.10;;;;;;;11.55;47.57;98811.98;107944;1256;61172;-67
2024/02/04 07:38:46;;;;;;;15.40;3.10;;;;;;;11.60;47.43;98814.99;107913;1255;60245;-67
2024/02/04 07:41:15;;;;;;;13.40;2.90;;;;;;;11.69;47.28;98812.00;107855;1256;72815;-66
2024/02/04 07:43:43;;;;;;;9.30;2.90;;;;;;;11.84;47.01;98812.77;107871;1256;68931;-67
2024/02/04 07:46:10;;;;;;;8.20;2.40;;;;;;;11.86;46.94;98817.39;107935;1256;71311;-67
2024/02/04 07:48:37;;;;;;;11.00;2.40;;;;;;;11.73;47.03;98817.92;107925;1259;59996;-66
2024/02/04 07:51:04;;;;;;;13.80;2.90;;;;;;;11.90;46.75;98817.70;107903;1259;60039;-66
2024/02/04 07:53:31;;;;;;;13.50;2.90;;;;;;;12.03;46.68;98821.30;107738;1261;73460;-67
2024/02/04 07:55:58;;;;;;;6.70;2.20;;;;;;;11.99;46.43;98822.27;107945;1256;70276;-67
2024/02/04 07:58:26;;;;;;;6.20;2.20;;;;;;;12.04;46.38;98822.27;107969;1256;72471;-67
2024/02/04 08:00:53;;;;;;;14.40;2.80;;;;;;;11.93;46.45;98826.33;107951;1256;61086;-66
2024/02/04 08:03:20;;;;;;;8.20;2.90;;;;;;;12.04;46.32;98831.80;107990;1256;60279;-67
2024/02/04 08:05:47;;;;;;;5.90;2.90;;;;;;;12.07;46.25;98836.35;107928;1256;72923;-66
2024/02/04 08:08:13;;;;;;;13.00;2.70;;;;;;;12.11;46.50;98834.71;107962;1256;70117;-67
2024/02/04 08:10:40;;;;;;;7.90;2.40;;;;;;;12.08;46.80;98835.23;107985;1255;72431;-67
2024/02/04 08:13:06;;;;;;;8.50;2.50;;;;;;;12.04;47.26;98831.10;107957;1255;59596;-68
2024/02/04 08:15:33;;;;;;;11.90;3.10;;;;;;;12.08;47.40;98835.43;107940;1256;59495;-67
2024/02/04 08:18:00;;;;;;;9.20;2.60;;;;;;;12.10;47.88;98842.52;107930;1256;72780;-66
2024/02/04 08:20:29;;;;;;;7.90;2.60;;;;;;;12.11;47.98;98846.66;107921;1256;69106;-66
2024/02/04 08:22:56;;;;;;;7.50;2.50;;;;;;;12.09;48.25;98842.73;107981;1256;72448;-67
2024/02/04 08:25:22;;;;;;;11.40;2.60;;;;;;;12.14;48.03;98840.31;107988;1256;60641;-67
2024/02/04 08:27:49;;;;;;;12.60;2.80;;;;;;;12.19;48.00;98836.63;107955;1258;60405;-66
2024/02/04 08:30:18;;;;;;;8.60;2.60;;;;;;;12.20;48.21;98833.93;107968;1256;72008;-66
2024/02/04 08:32:45;;;;;;;7.90;2.50;;;;;;;12.35;48.04;98833.98;107980;1256;68844;-68
2024/02/04 08:35:12;;;;;;;9.50;3.10;;;;;;;12.47;47.90;98833.46;107968;1256;72342;-67
2024/02/04 08:37:39;;;;;;;10.40;2.50;;;;;;;12.56;47.60;98834.23;107876;1256;60185;-66
2024/02/04 08:40:06;;;;;;;7.40;2.40;;;;;;;12.70;47.02;98832.45;107925;1256;59517;-68
2024/02/04 08:42:33;;;;;;;8.90;2.50;;;;;;;12.81;46.63;98828.52;107978;1256;72924;-68
2024/02/04 08:45:00;;;;;;;9.60;3.00;;;;;;;12.82;46.48;98825.99;107888;1255;67990;-67
2024/02/04 08:47:27;;;;;;;8.60;2.80;;;;;;;12.86;46.29;98829.61;107874;1256;72917;-67
2024/02/04 08:49:54;;;;;;;10.30;2.50;;;;;;;12.95;46.27;98830.95;107872;1256;61071;-71
2024/02/04 08:52:22;;;;;;;10.60;3.40;;;;;;;13.00;46.31;98832.86;107892;1259;59642;-68
2024/02/04 08:54:48;;;;;;;10.80;3.00;;;;;;;13.15;46.07;98833.45;107916;1256;73047;-68
2024/02/04 08:57:16;;;;;;;8.70;2.60;;;;;;;13.19;45.88;98831.26;107747;1261;70157;-68
2024/02/04 08:59:43;;;;;;;10.10;2.90;;;;;;;13.34;45.79;98823.21;107875;1256;72753;-66
2024/02/04 09:02:09;;;;;;;8.70;3.20;;;;;;;13.57;45.40;98812.94;107869;1256;59631;-67
2024/02/04 09:04:40;;;;;;;9.60;3.40;;;;;;;13.68;45.08;98809.73;107911;1256;60308;-67
2024/02/04 09:07:07;;;;;;;9.20;2.90;;;;;;;14.07;45.35;98810.66;107945;1256;71822;-69
2024/02/04 09:09:34;;;;;;;9.00;3.00;;;;;;;14.77;45.29;98805.85;107943;1256;70270;-66
2024/02/04 09:12:01;;;;;;;8.90;3.20;;;;;;;15.51;43.78;98795.26;107948;1256;72692;-67
2024/02/04 09:14:28;;;;;;;9.80;3.40;;;;;;;16.16;41.68;98796.81;107890;1256;61792;-67
2024/02/04 09:16:54;;;;;;;9.50;3.40;;;;;;;16.56;40.69;98794.08;107889;1256;60170;-68
2024/02/04 09:19:21;;;;;;;10.30;3.10;;;;;;;17.29;40.32;98797.45;107916;1256;72800;-66
2024/02/04 09:21:48;;;;;;;7.10;2.80;;;;;;;17.74;38.79;98782.23;107926;1256;70225;-66
2024/02/04 09:24:15;;;;;;;8.20;3.30;;;;;;;18.02;37.59;98781.23;107871;1256;70398;-66
2024/02/04 09:26:41;;;;;;;9.30;3.20;;;;;;;17.86;37.24;98781.04;107947;1256;60190;-67
2024/02/04 09:29:08;;;;;;;8.80;2.70;;;;;;;17.77;36.99;98781.99;107898;1259;60597;-66
2024/02/04 09:31:35;;;;;;;6.30;2.50;;;;;;;17.32;36.95;98791.55;107967;1256;72742;-67
2024/02/04 09:34:03;;;;;;;6.90;2.20;;;;;;;16.85;37.50;98786.89;107881;1257;70722;-66
2024/02/04 09:36:30;;;;;;;7.00;2.80;;;;;;;16.83;37.64;98786.85;107908;1257;71676;-67
2024/02/04 09:38:58;;;;;;;9.00;2.70;;;;;;;16.81;37.68;98788.45;107882;1256;60415;-67
2024/02/04 09:41:26;;;;;;;8.20;2.60;;;;;;;16.73;37.98;98786.08;107904;1259;60333;-68
2024/02/04 09:43:53;;;;;;;10.10;2.90;;;;;;;16.60;38.03;98787.88;107791;1256;72854;-66
2024/02/04 09:46:20;;;;;;;7.40;2.60;;;;;;;16.32;38.20;98784.55;107799;1256;70103;-67
2024/02/04 09:48:47;;;;;;;7.80;3.20;;;;;;;15.94;38.67;98780.83;107941;1259;72677;-67
2024/02/04 09:51:15;;;;;;;10.30;3.40;;;;;;;15.57;39.25;98780.78;107681;1256;60325;-65
2024/02/04 09:53:45;;;;;;;7.90;3.40;;;;;;;15.38;39.82;98783.67;107713;1255;60464;-67
2024/02/04 09:56:12;;;;;;;11.20;2.80;;;;;;;15.50;40.00;98777.58;107880;1256;74059;-66
2024/02/04 09:58:40;;;;;;;10.90;3.20;;;;;;;15.72;39.55;98770.91;107885;1256;70352;-67
2024/02/04 10:01:10;;;;;;;8.70;3.90;;;;;;;16.07;39.31;98768.17;107703;1256;71133;-69
2024/02/04 10:03:37;;;;;;;6.40;2.50;;;;;;;16.26;38.67;98765.02;107705;1257;60367;-67
2024/02/04 10:06:04;;;;;;;7.30;2.40;;;;;;;16.19;38.32;98763.09;107725;1256;61492;-67
2024/02/04 10:08:36;;;;;;;10.70;2.90;;;;;;;16.26;38.43;98755.79;107960;1259;73816;-69
2024/02/04 10:11:03;;;;;;;9.20;2.70;;;;;;;16.24;38.39;98745.17;107743;1255;70984;-68
2024/02/04 10:13:30;;;;;;;9.20;3.00;;;;;;;16.33;38.23;98741.01;107927;1259;72394;-68
2024/02/04 10:15:57;;;;;;;8.50;2.40;;;;;;;16.39;37.82;98737.73;108193;1254;60316;-67
2024/02/04 10:18:24;;;;;;;11.60;2.60;;;;;;;16.48;37.67;98735.31;108067;1253;60306;-66
2024/02/04 10:20:52;;;;;;;7.30;2.60;;;;;;;16.50;37.76;98733.73;107976;1253;73519;-67
2024/02/04 10:23:18;;;;;;;9.10;2.80;;;;;;;16.52;37.06;98731.14;108130;1253;70375;-67
2024/02/04 10:25:45;;;;;;;10.30;2.50;;;;;;;16.24;36.93;98733.80;107961;1258;72462;-67
2024/02/04 10:28:12;;;;;;;7.50;2.60;;;;;;;16.08;36.65;98728.40;108167;1254;60323;-67
2024/02/04 10:30:39;;;;;;;9.70;2.30;;;;;;;15.62;37.03;98718.83;108218;1253;60448;-68
2024/02/04 10:33:06;;;;;;;18.00;4.90;;;;;;;15.73;37.10;98719.04;108260;1253;73715;-68
2024/02/04 10:35:35;;;;;;;27.40;8.80;;;;;;;15.77;36.89;98719.09;108163;1254;70804;-66
2024/02/04 10:38:04;;;;;;;20.40;5.10;;;;;;;15.52;37.12;98717.34;108160;1253;72640;-67
2024/02/04 10:40:31;;;;;;;18.70;6.00;;;;;;;15.45;37.03;98712.92;108156;1254;60304;-67
2024/02/04 10:43:04;;;;;;;12.00;3.10;;;;;;;15.48;37.05;98710.75;108157;1253;60332;-66
2024/02/04 10:45:32;;;;;;;9.80;3.30;;;;;;;15.36;37.05;98705.88;108136;1253;73667;-67
2024/02/04 10:48:01;;;;;;;8.50;3.30;;;;;;;15.56;37.05;98708.17;108206;1253;69313;-67
2024/02/04 10:50:29;;;;;;;11.60;2.70;;;;;;;15.80;36.88;98709.83;108225;1253;72473;-67
2024/02/04 10:52:59;;;;;;;11.10;2.60;;;;;;;15.96;36.30;98712.75;108133;1253;60364;-67
2024/02/04 10:55:28;;;;;;;8.80;2.20;;;;;;;16.02;35.73;98715.08;108210;1253;60420;-68
2024/02/04 10:57:55;;;;;;;6.40;2.40;;;;;;;16.26;35.85;98708.88;108171;1253;73028;-67
2024/02/04 11:00:22;;;;;;;9.00;2.20;;;;;;;16.36;35.22;98711.21;108195;1253;70081;-68
2024/02/04 11:02:49;;;;;;;7.30;2.40;;;;;;;16.38;35.09;98713.89;108168;1253;71342;-67
2024/02/04 11:05:17;;;;;;;8.50;2.40;;;;;;;16.32;34.77;98715.09;108127;1254;60182;-69
2024/02/04 11:07:43;;;;;;;10.60;2.60;;;;;;;16.42;34.92;98719.04;108204;1254;60310;-66
2024/02/04 11:10:10;;;;;;;8.00;1.90;;;;;;;16.31;34.69;98724.73;108031;1254;74167;-68
2024/02/04 11:12:38;;;;;;;8.20;2.30;;;;;;;16.26;35.04;98726.97;107899;1254;70095;-67
2024/02/04 11:15:06;;;;;;;7.20;1.90;;;;;;;15.86;35.82;98726.45;108104;1256;71560;-67
2024/02/04 11:17:47;;;;;;;9.10;3.00;;;;;;;16.32;34.87;98722.31;107925;1253;60453;-70
2024/02/04 11:20:38;;;;;;;8.30;2.90;;;;;;;16.51;34.70;98723.90;108086;1255;60362;-67
2024/02/04 11:23:32;;;;;;;9.10;2.80;;;;;;;16.69;34.58;98729.54;108111;1257;73846;-68
2024/02/04 11:25:58;;;;;;;7.20;2.20;;;;;;;16.84;34.16;98728.45;108063;1254;69976;-67
2024/02/04 11:28:28;;;;;;;9.20;2.90;;;;;;;16.73;34.10;98733.48;108038;1253;72664;-66
2024/02/04 11:30:56;;;;;;;5.60;2.20;;;;;;;16.73;34.12;98731.67;107916;1254;60392;-67
2024/02/04 11:33:26;;;;;;;8.90;2.50;;;;;;;16.81;34.11;98734.57;107936;1254;60362;-68